NCAR-RAP Real-Time Weather Data

Output produced by METARs form (20 February 2019  17:05 UTC)
found at http://weather.rap.ucar.edu/surface/
 
RJOY 201000Z 01008KT 9999 -SHRA FEW020 SCT030 BKN035 12/05 Q1018
RJOY 200900Z 03005KT 350V070 9999 FEW020 SCT025 BKN030 13/07 Q1017
RJOY 200800Z 27013KT 9999 FEW025 BKN035 BKN050 14/07 Q1017
RJOY 200700Z 27016KT 9999 FEW020 SCT040 BKN060 15/07 Q1016
RJOY 200600Z 26015KT 9999 FEW020 SCT050 16/07 Q1015
RJOY 200500Z 25010KT 210V280 9999 FEW020 SCT050 BKN070 17/09 Q1015
RJOY 200400Z 27015KT 9999 FEW015 SCT025 16/10 Q1015
RJOY 200300Z 26013KT 9999 FEW010 SCT017 BKN025 16/11 Q1016
RJOY 200200Z 25009KT 200V280 9999 FEW005 SCT015 BKN060 14/11 Q1016
RJOY 200100Z 24007KT 200V290 9999 FEW005 SCT010 BKN060 14/12 Q1016
RJOY 200000Z 22004KT 160V300 5000 BR FEW010 SCT035 BKN060 13/11 Q1016
RJOY 192300Z 21004KT 160V270 5000 BR FEW010 SCT035 BKN060 13/11 Q1016
RJOY 191000Z VRB02KT 9999 FEW020 BKN060 BKN080 11/10 Q1013
RJOY 190900Z VRB03KT 9999 FEW005 SCT030 BKN080 12/10 Q1012
RJOY 190800Z 13008KT 090V190 9999 -SHRA FEW003 SCT050 BKN100 12/10 Q1012
RJOY 190739Z 13012KT 110V180 9999 -SHRA FEW003 SCT030 BKN070 11/11 Q1012 RMK 1ST003 3CU030 5AC070 A2989 P/FR
RJOY 190700Z 24003KT 170V280 5000 SHRA BR FEW002 SCT025 BKN070 11/10 Q1014
RJOY 190600Z 31006KT 9999 -RA FEW003 SCT060 BKN090 11/10 Q1015
RJOY 190500Z 28003KT 9999 -RA FEW003 SCT060 BKN090 11/09 Q1015
RJOY 190400Z VRB01KT 9999 -RA FEW003 BKN045 BKN070 11/08 Q1017
RJOY 190300Z 28004KT 9999 -RA FEW003 BKN045 BKN070 10/08 Q1019
RJOY 190200Z 27005KT 9999 -RA FEW003 BKN050 BKN070 09/08 Q1020
RJOY 190100Z VRB02KT 7000 -RA FEW008 SCT035 BKN060 08/06 Q1021
RJOY 190000Z 27002KT 8000 -RA FEW025 SCT035 BKN050 08/06 Q1022
RJOY 182300Z 18003KT 150V220 9999 -RA FEW030 BKN045 07/04 Q1023
RJOY 181000Z VRB01KT CAVOK 10/M00 Q1025
RJOY 180900Z 28002KT 9999 FEW030 BKN/// 12/M04 Q1025
RJOY 180800Z 33002KT 9999 FEW030 BKN/// 13/M06 Q1024
RJOY 180700Z VRB02KT 9999 FEW030 BKN/// 12/M05 Q1024
RJOY 180600Z 31003KT 230V030 9999 FEW030 BKN/// 13/M04 Q1025